Time;durP1;ratioP1;P1;durP2;ratioP2;P2;SDS_P1;SDS_P2;PMS_P1;PMS_P2;Temp;Humidity;BMP_temperature;BMP_pressure;BME280_temperature;BME280_humidity;BME280_pressure;Samples;Min_cycle;Max_cycle;Signal;HPM_P1;HPM_P2
2022/01/22 00:02:09;;;;;;;6.60;3.30;;;;;;;;;;5138981;27;20445;-75
2022/01/22 00:04:37;;;;;;;9.37;3.80;;;;;;;;;;5138334;27;20464;-75
2022/01/22 00:07:06;;;;;;;7.67;2.63;;;;;;;;;;5139239;27;20483;-75
2022/01/22 00:09:51;;;;;;;6.17;3.47;;;;;;;;;;5139342;27;20445;-74
2022/01/22 00:12:32;;;;;;;3.57;2.50;;;;;;;;;;5138945;27;20920;-74
2022/01/22 00:15:00;;;;;;;4.13;2.97;;;;;;;;;;5139074;27;20568;-74
2022/01/22 00:17:29;;;;;;;6.83;3.43;;;;;;;;;;5139052;27;20469;-74
2022/01/22 00:19:57;;;;;;;4.83;3.33;;;;;;;;;;5139249;27;20460;-74
2022/01/22 00:22:29;;;;;;;7.97;3.63;;;;;;;;;;5136219;27;20456;-74
2022/01/22 00:24:59;;;;;;;7.53;3.77;;;;;;;;;;5157270;27;20996;-74
2022/01/22 00:27:28;;;;;;;4.13;3.30;;;;;;;;;;5145539;27;20471;-74
2022/01/22 00:29:56;;;;;;;9.30;3.33;;;;;;;;;;5149567;27;20448;-74
2022/01/22 00:32:24;;;;;;;4.50;3.70;;;;;;;;;;5138601;27;20868;-74
2022/01/22 00:34:54;;;;;;;10.73;4.27;;;;;;;;;;5138465;27;20485;-74
2022/01/22 00:37:22;;;;;;;4.57;3.20;;;;;;;;;;5138685;27;20473;-75
2022/01/22 00:39:50;;;;;;;9.37;3.53;;;;;;;;;;5138839;27;20452;-74
2022/01/22 00:42:18;;;;;;;10.80;3.57;;;;;;;;;;5138726;27;20446;-74
2022/01/22 00:44:49;;;;;;;5.43;2.80;;;;;;;;;;5138787;27;20524;-74
2022/01/22 00:47:17;;;;;;;9.30;3.27;;;;;;;;;;5151789;27;20465;-74
2022/01/22 00:49:46;;;;;;;7.90;3.20;;;;;;;;;;5138436;27;20477;-74
2022/01/22 00:52:16;;;;;;;6.00;3.50;;;;;;;;;;5137957;27;20532;-74
2022/01/22 00:54:44;;;;;;;5.67;3.40;;;;;;;;;;5138700;27;20561;-74
2022/01/22 00:57:12;;;;;;;8.50;3.40;;;;;;;;;;5138700;27;20458;-75
2022/01/22 00:59:40;;;;;;;5.17;3.30;;;;;;;;;;5138692;27;20434;-75
2022/01/22 01:02:08;;;;;;;4.50;3.23;;;;;;;;;;5138534;27;20512;-74
2022/01/22 01:04:37;;;;;;;3.97;2.93;;;;;;;;;;5138683;27;20924;-74
2022/01/22 01:07:05;;;;;;;10.07;3.77;;;;;;;;;;5137561;28;20461;-75
2022/01/22 01:09:37;;;;;;;11.43;3.77;;;;;;;;;;5138652;28;20529;-75
2022/01/22 01:12:08;;;;;;;5.37;3.40;;;;;;;;;;5138325;28;20531;-76
2022/01/22 01:14:41;;;;;;;4.77;3.10;;;;;;;;;;5138315;28;20488;-76
2022/01/22 01:17:22;;;;;;;7.13;3.43;;;;;;;;;;5149712;27;21074;-76
2022/01/22 01:33:58;;;;;;;8.27;3.07;;;;;;;;;;5070515;28;20927;-75
2022/01/22 01:36:26;;;;;;;4.80;3.50;;;;;;;;;;5113155;28;20533;-75
2022/01/22 01:38:57;;;;;;;4.40;3.23;;;;;;;;;;5138665;28;20450;-76
2022/01/22 01:41:34;;;;;;;9.47;4.17;;;;;;;;;;5138142;28;20446;-75
2022/01/22 01:44:02;;;;;;;11.27;3.70;;;;;;;;;;5138056;28;20433;-75
2022/01/22 01:46:32;;;;;;;9.60;3.00;;;;;;;;;;5138131;27;20462;-75
2022/01/22 01:49:02;;;;;;;8.77;3.63;;;;;;;;;;5137926;28;20452;-75
2022/01/22 01:51:32;;;;;;;3.47;3.00;;;;;;;;;;5137713;28;20452;-75
2022/01/22 01:54:06;;;;;;;5.20;3.53;;;;;;;;;;5138159;28;20522;-76
2022/01/22 01:59:21;;;;;;;6.10;3.40;;;;;;;;;;5138036;28;20452;-76
2022/01/22 02:01:49;;;;;;;3.50;2.93;;;;;;;;;;5138074;28;20450;-75
2022/01/22 02:04:17;;;;;;;9.63;3.27;;;;;;;;;;5140356;27;20449;-75
2022/01/22 02:06:45;;;;;;;7.47;3.67;;;;;;;;;;5141740;27;21073;-76
2022/01/22 02:09:13;;;;;;;6.57;3.37;;;;;;;;;;5141715;27;20458;-76
2022/01/22 02:11:44;;;;;;;9.43;3.70;;;;;;;;;;5141913;27;20450;-76
2022/01/22 02:23:30;;;;;;;8.70;3.30;;;;;;;;;;5128885;27;20467;-75
2022/01/22 02:25:20;;;;;;;5.07;3.50;;;;;;;;;;5162169;27;20441;-76
2022/01/22 02:27:48;;;;;;;9.43;4.00;;;;;;;;;;5161716;27;20852;-75
2022/01/22 02:30:21;;;;;;;4.70;2.90;;;;;;;;;;5162198;27;20440;-76
2022/01/22 02:33:06;;;;;;;5.57;2.80;;;;;;;;;;5161833;27;20814;-75
2022/01/22 02:35:47;;;;;;;10.03;3.57;;;;;;;;;;5161575;27;20553;-76
2022/01/22 02:38:25;;;;;;;6.90;3.63;;;;;;;;;;5162120;27;20436;-76
2022/01/22 02:40:53;;;;;;;4.80;3.10;;;;;;;;;;5161894;27;20540;-76
2022/01/22 02:43:22;;;;;;;5.30;4.00;;;;;;;;;;5161939;27;20440;-76
2022/01/22 02:45:53;;;;;;;5.70;3.30;;;;;;;;;;5159646;27;20873;-76
2022/01/22 02:48:21;;;;;;;5.23;3.17;;;;;;;;;;5141045;27;20452;-76
2022/01/22 02:50:49;;;;;;;7.97;3.80;;;;;;;;;;5140875;27;20478;-76
2022/01/22 02:53:18;;;;;;;9.03;3.27;;;;;;;;;;5140941;27;21008;-76
2022/01/22 02:55:46;;;;;;;5.50;3.53;;;;;;;;;;5141419;27;20476;-76
2022/01/22 02:58:15;;;;;;;5.53;3.30;;;;;;;;;;5140177;27;20438;-76
2022/01/22 03:00:43;;;;;;;6.37;3.07;;;;;;;;;;5142078;27;20541;-76
2022/01/22 03:03:11;;;;;;;8.37;3.80;;;;;;;;;;5141436;27;20945;-76
2022/01/22 03:05:39;;;;;;;5.50;3.30;;;;;;;;;;5140557;27;20452;-76
2022/01/22 03:08:10;;;;;;;8.27;3.33;;;;;;;;;;5140622;27;20430;-75
2022/01/22 03:10:41;;;;;;;10.97;3.73;;;;;;;;;;5140735;27;20525;-76
2022/01/22 03:13:55;;;;;;;6.67;4.03;;;;;;;;;;5140454;27;20525;-75
2022/01/22 03:16:26;;;;;;;5.07;3.43;;;;;;;;;;5139308;27;20484;-75
2022/01/22 03:19:00;;;;;;;3.27;2.97;;;;;;;;;;5140268;27;20487;-75
2022/01/22 03:21:37;;;;;;;7.00;3.73;;;;;;;;;;5140438;27;20525;-76
2022/01/22 03:29:39;;;;;;;11.40;3.97;;;;;;;;;;5161240;27;20456;-75
2022/01/22 03:32:08;;;;;;;9.73;4.30;;;;;;;;;;5160077;27;20433;-75
2022/01/22 03:34:42;;;;;;;9.37;4.17;;;;;;;;;;5152642;27;20457;-76
2022/01/22 03:37:10;;;;;;;8.53;4.30;;;;;;;;;;5141361;27;20513;-75
2022/01/22 03:39:38;;;;;;;12.30;4.23;;;;;;;;;;5140603;27;20442;-76
2022/01/22 03:42:08;;;;;;;8.00;4.67;;;;;;;;;;5139718;27;20832;-77
2022/01/22 03:44:36;;;;;;;7.83;4.27;;;;;;;;;;5140084;27;20442;-78
2022/01/22 03:47:05;;;;;;;8.80;4.03;;;;;;;;;;5131139;27;20561;-79
2022/01/22 03:49:34;;;;;;;10.07;3.63;;;;;;;;;;5139716;27;20554;-79
2022/01/22 03:52:01;;;;;;;8.43;4.43;;;;;;;;;;5133449;27;20521;-78
2022/01/22 03:54:29;;;;;;;12.33;4.17;;;;;;;;;;5139582;27;21005;-78
2022/01/22 03:56:57;;;;;;;8.47;4.70;;;;;;;;;;5139165;27;20557;-78
2022/01/22 03:59:29;;;;;;;10.93;4.47;;;;;;;;;;5133561;27;20537;-78
2022/01/22 04:02:35;;;;;;;10.63;4.40;;;;;;;;;;5139543;27;20533;-79
2022/01/22 04:05:02;;;;;;;7.50;4.47;;;;;;;;;;5139140;27;20438;-78
2022/01/22 04:10:21;;;;;;;5.00;4.50;;;;;;;;;;5135444;27;20449;-78
2022/01/22 04:12:54;;;;;;;7.40;4.00;;;;;;;;;;5139010;27;20430;-78
2022/01/22 04:15:27;;;;;;;5.67;4.20;;;;;;;;;;5139222;27;20442;-78
2022/01/22 04:26:20;;;;;;;8.80;4.17;;;;;;;;;;5126618;27;20462;-78
2022/01/22 04:28:48;;;;;;;5.17;4.77;;;;;;;;;;5138607;27;20485;-78
2022/01/22 04:31:19;;;;;;;7.33;4.77;;;;;;;;;;5139109;27;20442;-78
2022/01/22 04:33:47;;;;;;;6.80;5.73;;;;;;;;;;5138843;27;20450;-78
2022/01/22 04:36:15;;;;;;;7.40;4.73;;;;;;;;;;5138934;27;20517;-78
2022/01/22 04:38:43;;;;;;;7.53;5.27;;;;;;;;;;5139055;27;20442;-79
2022/01/22 04:41:11;;;;;;;8.37;4.63;;;;;;;;;;5139139;27;20457;-78
2022/01/22 04:43:41;;;;;;;11.07;6.03;;;;;;;;;;5138646;27;20453;-79
2022/01/22 04:46:18;;;;;;;11.07;5.10;;;;;;;;;;5138803;27;21031;-79
2022/01/22 04:48:57;;;;;;;7.43;4.23;;;;;;;;;;5138706;27;20495;-78
2022/01/22 04:56:58;;;;;;;10.83;5.33;;;;;;;;;;5112268;27;20474;-78
2022/01/22 04:59:26;;;;;;;7.60;5.30;;;;;;;;;;5138480;27;20463;-78
2022/01/22 05:01:54;;;;;;;10.17;5.57;;;;;;;;;;5138795;27;20446;-78
2022/01/22 05:04:23;;;;;;;8.03;5.37;;;;;;;;;;5138923;27;20464;-78
2022/01/22 05:06:51;;;;;;;12.70;5.00;;;;;;;;;;5138272;27;20898;-79
2022/01/22 05:09:19;;;;;;;8.80;5.40;;;;;;;;;;5138781;28;20448;-78
2022/01/22 05:11:47;;;;;;;8.30;5.90;;;;;;;;;;5138067;28;20446;-78
2022/01/22 05:14:15;;;;;;;8.47;5.93;;;;;;;;;;5138558;28;20454;-78
2022/01/22 05:16:43;;;;;;;12.27;6.03;;;;;;;;;;5138252;28;20482;-78
2022/01/22 05:19:15;;;;;;;12.63;5.90;;;;;;;;;;5138039;28;21008;-78
2022/01/22 05:21:46;;;;;;;8.23;5.17;;;;;;;;;;5138520;28;20472;-78
2022/01/22 05:24:19;;;;;;;12.87;6.23;;;;;;;;;;5138674;28;20453;-78
2022/01/22 05:27:12;;;;;;;9.67;5.43;;;;;;;;;;5137910;28;20457;-75
2022/01/22 05:32:37;;;;;;;8.03;5.43;;;;;;;;;;5133132;27;20987;-77
2022/01/22 05:37:52;;;;;;;10.87;5.77;;;;;;;;;;5138436;27;20480;-77
2022/01/22 05:40:20;;;;;;;9.20;6.03;;;;;;;;;;5143168;27;20965;-77
2022/01/22 05:42:48;;;;;;;8.80;5.93;;;;;;;;;;5141844;27;20525;-77
2022/01/22 05:45:16;;;;;;;8.23;6.00;;;;;;;;;;5143866;27;20469;-77
2022/01/22 05:47:45;;;;;;;12.17;6.10;;;;;;;;;;5139044;27;20517;-77
2022/01/22 05:50:25;;;;;;;11.30;5.50;;;;;;;;;;5142316;27;20913;-77
2022/01/22 05:52:58;;;;;;;8.07;5.43;;;;;;;;;;5141293;27;20444;-77
2022/01/22 05:55:43;;;;;;;13.60;5.40;;;;;;;;;;5140370;27;20436;-77
2022/01/22 06:00:57;;;;;;;10.23;6.17;;;;;;;;;;5140845;27;20437;-77
2022/01/22 06:03:25;;;;;;;12.53;6.73;;;;;;;;;;5141049;27;20472;-77
2022/01/22 06:05:53;;;;;;;9.83;5.97;;;;;;;;;;5141413;27;20540;-77
2022/01/22 06:08:29;;;;;;;9.37;5.80;;;;;;;;;;5141698;27;20448;-76
2022/01/22 06:10:59;;;;;;;11.00;5.77;;;;;;;;;;5144285;27;20437;-74
2022/01/22 06:13:43;;;;;;;9.43;5.83;;;;;;;;;;5141424;27;20872;-74
2022/01/22 06:16:11;;;;;;;10.23;5.93;;;;;;;;;;5139964;27;20488;-76
2022/01/22 06:18:39;;;;;;;7.37;5.43;;;;;;;;;;5142845;27;20477;-75
2022/01/22 06:21:08;;;;;;;11.83;5.73;;;;;;;;;;5140476;27;20800;-75
2022/01/22 06:23:38;;;;;;;10.67;6.27;;;;;;;;;;5152145;27;20447;-75
2022/01/22 06:26:07;;;;;;;11.27;6.30;;;;;;;;;;5162411;27;20539;-75
2022/01/22 06:28:36;;;;;;;8.80;5.77;;;;;;;;;;5161924;27;20905;-77
2022/01/22 06:31:04;;;;;;;11.50;6.37;;;;;;;;;;5162270;27;20508;-77
2022/01/22 06:33:32;;;;;;;11.90;6.07;;;;;;;;;;5162203;27;20441;-77
2022/01/22 06:36:00;;;;;;;9.57;5.43;;;;;;;;;;5161981;27;20956;-77
2022/01/22 06:38:28;;;;;;;10.20;5.67;;;;;;;;;;5162118;27;20555;-76
2022/01/22 06:43:43;;;;;;;11.07;6.00;;;;;;;;;;5161447;27;20999;-76
2022/01/22 06:46:11;;;;;;;10.17;5.63;;;;;;;;;;5151988;27;20469;-75
2022/01/22 06:48:39;;;;;;;11.93;5.87;;;;;;;;;;5141076;27;20945;-80
2022/01/22 06:51:07;;;;;;;9.67;5.10;;;;;;;;;;5143660;27;20471;-76
2022/01/22 06:53:40;;;;;;;7.87;5.23;;;;;;;;;;5146896;27;20438;-76
2022/01/22 06:56:19;;;;;;;8.17;5.47;;;;;;;;;;5137511;27;20457;-77
2022/01/22 06:58:47;;;;;;;9.77;5.30;;;;;;;;;;5133878;27;20569;-77
2022/01/22 07:01:15;;;;;;;9.23;5.90;;;;;;;;;;5131169;27;20457;-77
2022/01/22 07:03:44;;;;;;;11.40;5.83;;;;;;;;;;5130620;27;20434;-78
2022/01/22 07:06:12;;;;;;;9.00;5.67;;;;;;;;;;5132466;27;21189;-78
2022/01/22 07:08:40;;;;;;;12.47;5.70;;;;;;;;;;5130192;27;20517;-77
2022/01/22 07:11:09;;;;;;;8.17;5.80;;;;;;;;;;5132124;27;21128;-76
2022/01/22 07:13:38;;;;;;;10.03;4.87;;;;;;;;;;5132801;27;20567;-77
2022/01/22 07:16:06;;;;;;;10.93;5.40;;;;;;;;;;5130818;27;20519;-78
2022/01/22 07:18:37;;;;;;;6.80;4.87;;;;;;;;;;5131766;27;20875;-77
2022/01/22 07:21:14;;;;;;;8.10;4.80;;;;;;;;;;5133683;27;20452;-77
2022/01/22 07:26:24;;;;;;;10.30;5.00;;;;;;;;;;5137534;27;20554;-74
2022/01/22 07:28:54;;;;;;;14.80;5.87;;;;;;;;;;5132579;27;20521;-76
2022/01/22 07:31:23;;;;;;;6.80;5.47;;;;;;;;;;5132258;27;20521;-72
2022/01/22 07:33:51;;;;;;;9.00;5.33;;;;;;;;;;5124891;27;20442;-74
2022/01/22 07:36:19;;;;;;;8.90;6.00;;;;;;;;;;5130341;27;20454;-74
2022/01/22 07:38:47;;;;;;;11.17;5.97;;;;;;;;;;5137878;27;20568;-74
2022/01/22 07:41:17;;;;;;;11.67;6.20;;;;;;;;;;5138219;27;20441;-73
2022/01/22 07:43:45;;;;;;;13.37;6.10;;;;;;;;;;5137638;27;21000;-74
2022/01/22 07:46:14;;;;;;;6.57;5.03;;;;;;;;;;5136181;27;20485;-74
2022/01/22 07:48:42;;;;;;;9.03;5.40;;;;;;;;;;5139910;27;20440;-75
2022/01/22 07:51:10;;;;;;;12.47;5.70;;;;;;;;;;5098546;28;20490;-74
2022/01/22 07:53:39;;;;;;;9.90;5.77;;;;;;;;;;5104679;28;20436;-75
2022/01/22 07:56:07;;;;;;;9.67;5.57;;;;;;;;;;5109032;28;20501;-74
2022/01/22 07:58:35;;;;;;;8.77;6.10;;;;;;;;;;5106411;28;20479;-75
2022/01/22 08:01:03;;;;;;;9.73;5.93;;;;;;;;;;5107370;28;20956;-75
2022/01/22 08:03:33;;;;;;;10.17;5.47;;;;;;;;;;5104295;28;20531;-75
2022/01/22 08:06:01;;;;;;;8.23;5.47;;;;;;;;;;5105489;28;20459;-75
2022/01/22 08:08:29;;;;;;;6.63;5.60;;;;;;;;;;5107321;28;20449;-75
2022/01/22 08:11:01;;;;;;;10.83;6.20;;;;;;;;;;5108576;28;20500;-75
2022/01/22 08:13:30;;;;;;;10.37;4.97;;;;;;;;;;5105313;28;21045;-75
2022/01/22 08:15:58;;;;;;;8.67;5.73;;;;;;;;;;5103998;28;20448;-75
2022/01/22 08:18:26;;;;;;;11.83;6.70;;;;;;;;;;5108366;28;20490;-75
2022/01/22 08:20:56;;;;;;;9.53;5.90;;;;;;;;;;5107265;28;20934;-75
2022/01/22 08:23:24;;;;;;;8.20;6.40;;;;;;;;;;5106528;28;20434;-75
2022/01/22 08:25:52;;;;;;;9.83;5.90;;;;;;;;;;5103074;28;21148;-74
2022/01/22 08:31:17;;;;;;;14.77;6.33;;;;;;;;;;5092505;28;20530;-70
2022/01/22 08:36:32;;;;;;;10.93;6.70;;;;;;;;;;5097697;28;21053;-69
2022/01/22 08:39:00;;;;;;;183.57;22.70;;;;;;;;;;5097957;28;20570;-70
2022/01/22 08:41:28;;;;;;;27.33;7.70;;;;;;;;;;5097722;28;21014;-68
2022/01/22 08:43:57;;;;;;;18.57;7.53;;;;;;;;;;5097868;28;20443;-69
2022/01/22 08:46:26;;;;;;;19.40;7.13;;;;;;;;;;5100136;28;20491;-68
2022/01/22 08:48:54;;;;;;;18.50;7.30;;;;;;;;;;5106198;27;20463;-67
2022/01/22 08:51:22;;;;;;;11.53;7.20;;;;;;;;;;5147273;27;20434;-68
2022/01/22 08:53:52;;;;;;;12.53;6.03;;;;;;;;;;5144638;27;20434;-70
2022/01/22 08:56:20;;;;;;;9.23;6.40;;;;;;;;;;5147847;27;20894;-69
2022/01/22 08:58:48;;;;;;;23.67;8.00;;;;;;;;;;5143608;27;20541;-67
2022/01/22 09:01:16;;;;;;;711.70;97.10;;;;;;;;;;5138486;27;20448;-68
2022/01/22 09:03:46;;;;;;;20.40;7.37;;;;;;;;;;5144661;27;20523;-65
2022/01/22 09:06:14;;;;;;;23.13;7.67;;;;;;;;;;5145927;27;20456;-64
2022/01/22 09:08:42;;;;;;;14.07;7.43;;;;;;;;;;5143619;27;20812;-63
2022/01/22 09:11:11;;;;;;;12.43;7.63;;;;;;;;;;5142913;27;20525;-70
2022/01/22 09:13:39;;;;;;;16.73;6.83;;;;;;;;;;5143141;27;20797;-67
2022/01/22 09:16:07;;;;;;;13.13;6.53;;;;;;;;;;5145557;27;20540;-63
2022/01/22 09:18:36;;;;;;;13.57;7.20;;;;;;;;;;5145007;27;20481;-63
2022/01/22 09:21:06;;;;;;;10.77;6.73;;;;;;;;;;5145174;27;20454;-63
2022/01/22 09:23:34;;;;;;;15.70;7.37;;;;;;;;;;5150976;27;20620;-64
2022/01/22 09:26:02;;;;;;;12.37;7.43;;;;;;;;;;5140730;27;20458;-64
2022/01/22 09:28:34;;;;;;;14.40;7.47;;;;;;;;;;5134917;27;20429;-64
2022/01/22 09:31:02;;;;;;;12.80;6.83;;;;;;;;;;5136103;27;20493;-64
2022/01/22 09:33:30;;;;;;;14.20;6.90;;;;;;;;;;5134216;27;20522;-65
2022/01/22 09:35:58;;;;;;;15.73;6.63;;;;;;;;;;5136207;27;20493;-64
2022/01/22 09:38:26;;;;;;;13.73;7.33;;;;;;;;;;5136264;27;20438;-65
2022/01/22 09:40:54;;;;;;;14.00;7.70;;;;;;;;;;5132454;27;20435;-65
2022/01/22 09:43:23;;;;;;;13.47;7.53;;;;;;;;;;5134961;27;20441;-65
2022/01/22 09:45:52;;;;;;;15.27;7.00;;;;;;;;;;5144202;27;20449;-65
2022/01/22 09:48:23;;;;;;;9.07;6.23;;;;;;;;;;5165799;27;20444;-64
2022/01/22 09:50:51;;;;;;;11.83;7.90;;;;;;;;;;5165774;27;20497;-65
2022/01/22 09:53:20;;;;;;;12.40;6.80;;;;;;;;;;5165898;27;20451;-65
2022/01/22 09:55:48;;;;;;;11.97;7.70;;;;;;;;;;5156744;27;20564;-64
2022/01/22 09:58:16;;;;;;;8.70;7.40;;;;;;;;;;5156486;27;20527;-64
2022/01/22 10:00:44;;;;;;;13.17;7.97;;;;;;;;;;5165658;27;20484;-64
2022/01/22 10:03:19;;;;;;;12.10;7.27;;;;;;;;;;5165443;27;20444;-64
2022/01/22 10:05:47;;;;;;;11.33;7.07;;;;;;;;;;5165702;27;20522;-71
2022/01/22 10:08:18;;;;;;;10.80;7.00;;;;;;;;;;5153798;27;20439;-75
2022/01/22 10:10:47;;;;;;;14.73;7.60;;;;;;;;;;5135711;27;20462;-75
2022/01/22 10:13:15;;;;;;;11.10;7.20;;;;;;;;;;5135380;27;20441;-75
2022/01/22 10:15:43;;;;;;;12.93;7.60;;;;;;;;;;5135149;27;20477;-76
2022/01/22 10:18:13;;;;;;;11.50;7.70;;;;;;;;;;5138475;27;20429;-76
2022/01/22 10:20:43;;;;;;;10.77;6.80;;;;;;;;;;5135421;27;20474;-76
2022/01/22 10:23:18;;;;;;;17.80;7.10;;;;;;;;;;5134840;27;20440;-76
2022/01/22 10:25:51;;;;;;;11.17;7.13;;;;;;;;;;5129312;27;20457;-76
2022/01/22 10:28:21;;;;;;;8.90;6.60;;;;;;;;;;5131812;27;20438;-76
2022/01/22 10:30:55;;;;;;;15.10;8.03;;;;;;;;;;5132835;27;20443;-76
2022/01/22 10:33:28;;;;;;;12.93;7.50;;;;;;;;;;5132747;27;20459;-76
2022/01/22 10:36:08;;;;;;;12.67;7.33;;;;;;;;;;5132450;27;20467;-76
2022/01/22 10:38:40;;;;;;;8.80;6.77;;;;;;;;;;5133076;27;20431;-75
2022/01/22 10:41:08;;;;;;;11.53;7.43;;;;;;;;;;5129756;27;20471;-76
2022/01/22 10:43:42;;;;;;;11.87;7.47;;;;;;;;;;5132709;27;20777;-76
2022/01/22 10:46:13;;;;;;;8.13;5.80;;;;;;;;;;5130549;27;20988;-76
2022/01/22 10:48:43;;;;;;;13.47;7.00;;;;;;;;;;5131871;27;20419;-75
2022/01/22 10:51:14;;;;;;;9.53;6.70;;;;;;;;;;5115400;27;20428;-75
2022/01/22 10:53:44;;;;;;;9.80;6.13;;;;;;;;;;5111034;27;20449;-75
2022/01/22 10:56:13;;;;;;;9.30;7.13;;;;;;;;;;5117170;27;20549;-75
2022/01/22 10:58:56;;;;;;;12.17;7.37;;;;;;;;;;5112268;27;20439;-75
2022/01/22 11:01:27;;;;;;;12.40;7.00;;;;;;;;;;5114622;27;20449;-74
2022/01/22 11:04:06;;;;;;;10.67;6.17;;;;;;;;;;5126058;27;20452;-74
2022/01/22 11:06:35;;;;;;;8.13;6.37;;;;;;;;;;5140826;27;20568;-74
2022/01/22 11:09:04;;;;;;;14.33;7.37;;;;;;;;;;5140658;27;20803;-71
2022/01/22 11:11:36;;;;;;;21.10;8.63;;;;;;;;;;5140194;27;20689;-72
2022/01/22 11:14:05;;;;;;;10.77;7.13;;;;;;;;;;5138489;27;20533;-73
2022/01/22 11:16:33;;;;;;;13.30;7.73;;;;;;;;;;5134366;27;21078;-73
2022/01/22 11:19:15;;;;;;;15.50;7.07;;;;;;;;;;5125285;27;20530;-73
2022/01/22 11:21:47;;;;;;;10.03;6.23;;;;;;;;;;5129322;27;20931;-73
2022/01/22 11:24:17;;;;;;;11.33;6.60;;;;;;;;;;5110007;27;20462;-72
2022/01/22 11:26:46;;;;;;;11.30;6.40;;;;;;;;;;5112516;27;20893;-74
2022/01/22 11:29:15;;;;;;;11.57;6.10;;;;;;;;;;5113633;27;20584;-74
2022/01/22 11:31:45;;;;;;;15.43;6.10;;;;;;;;;;5140197;27;20941;-73
2022/01/22 11:34:15;;;;;;;8.33;6.47;;;;;;;;;;5140036;27;20452;-75
2022/01/22 11:36:47;;;;;;;12.17;6.33;;;;;;;;;;5139299;27;20480;-74
2022/01/22 11:39:18;;;;;;;12.57;6.33;;;;;;;;;;5139866;27;20452;-74
2022/01/22 11:41:53;;;;;;;7.43;5.67;;;;;;;;;;5128200;27;20453;-74
2022/01/22 11:44:26;;;;;;;8.60;6.10;;;;;;;;;;5126034;27;20956;-74
2022/01/22 11:47:07;;;;;;;9.23;5.13;;;;;;;;;;5124689;27;20995;-74
2022/01/22 11:49:35;;;;;;;10.80;5.63;;;;;;;;;;5146466;27;20521;-73
2022/01/22 11:52:25;;;;;;;9.40;6.07;;;;;;;;;;5160441;27;20524;-74
2022/01/22 11:54:54;;;;;;;11.33;6.37;;;;;;;;;;5159246;27;20512;-74
2022/01/22 11:57:23;;;;;;;10.57;5.90;;;;;;;;;;5146600;27;20997;-75
2022/01/22 12:00:16;;;;;;;9.67;6.90;;;;;;;;;;5160066;27;20990;-75
2022/01/22 12:02:44;;;;;;;12.20;5.87;;;;;;;;;;5148690;27;20486;-75
2022/01/22 12:05:12;;;;;;;9.30;5.53;;;;;;;;;;5139502;27;20529;-75
2022/01/22 12:07:57;;;;;;;9.53;5.50;;;;;;;;;;5139485;27;20470;-75
2022/01/22 12:10:37;;;;;;;8.87;5.83;;;;;;;;;;5139264;27;20529;-76
2022/01/22 12:16:11;;;;;;;5.37;4.87;;;;;;;;;;5145824;27;20457;-76
2022/01/22 12:18:41;;;;;;;12.80;5.20;;;;;;;;;;5145967;27;20473;-75
2022/01/22 12:21:34;;;;;;;8.47;5.33;;;;;;;;;;5142172;27;20481;-76
2022/01/22 12:24:08;;;;;;;11.43;5.70;;;;;;;;;;5139718;27;20509;-75
2022/01/22 12:26:43;;;;;;;7.63;5.03;;;;;;;;;;5138983;27;20462;-75
2022/01/22 12:29:29;;;;;;;9.27;5.23;;;;;;;;;;5138914;27;20920;-74
2022/01/22 12:32:13;;;;;;;8.23;4.93;;;;;;;;;;5138777;27;21008;-74
2022/01/22 12:35:02;;;;;;;10.30;6.23;;;;;;;;;;5143230;27;20923;-73
2022/01/22 12:37:30;;;;;;;8.37;5.20;;;;;;;;;;5133903;27;20479;-73
2022/01/22 12:40:05;;;;;;;10.23;5.20;;;;;;;;;;5131267;27;20434;-74
2022/01/22 12:42:53;;;;;;;13.30;6.07;;;;;;;;;;5135385;27;20931;-75
2022/01/22 12:45:22;;;;;;;7.17;5.20;;;;;;;;;;5145628;27;20920;-69
2022/01/22 12:47:51;;;;;;;8.20;5.30;;;;;;;;;;5144469;27;21062;-66
2022/01/22 12:50:24;;;;;;;8.77;5.93;;;;;;;;;;5134301;27;20482;-71
2022/01/22 12:52:53;;;;;;;7.87;5.03;;;;;;;;;;5138937;27;20939;-70
2022/01/22 12:55:37;;;;;;;6.50;5.40;;;;;;;;;;5138135;27;20924;-68
2022/01/22 12:58:05;;;;;;;9.40;5.37;;;;;;;;;;5146595;27;20433;-73
2022/01/22 13:00:33;;;;;;;5.83;4.67;;;;;;;;;;5146487;27;20473;-75
2022/01/22 13:03:01;;;;;;;6.87;5.37;;;;;;;;;;5148029;27;20516;-75
2022/01/22 13:05:30;;;;;;;12.53;5.77;;;;;;;;;;5142302;27;20943;-74
2022/01/22 13:08:01;;;;;;;9.67;5.20;;;;;;;;;;5138145;27;20434;-74
2022/01/22 13:10:33;;;;;;;10.00;6.03;;;;;;;;;;5138205;27;20944;-75
2022/01/22 13:13:02;;;;;;;11.67;5.37;;;;;;;;;;5138001;28;20437;-77
2022/01/22 13:15:30;;;;;;;10.57;5.07;;;;;;;;;;5138336;28;20450;-73
2022/01/22 13:17:59;;;;;;;10.07;6.20;;;;;;;;;;5142286;27;20433;-77
2022/01/22 13:20:28;;;;;;;8.63;5.00;;;;;;;;;;5137825;27;20442;-76
2022/01/22 13:22:58;;;;;;;6.90;4.93;;;;;;;;;;5139802;27;20446;-76
2022/01/22 13:25:27;;;;;;;8.17;5.33;;;;;;;;;;5142647;27;20466;-76
2022/01/22 13:28:01;;;;;;;13.60;6.10;;;;;;;;;;5146642;27;20459;-77
2022/01/22 13:30:35;;;;;;;7.53;4.77;;;;;;;;;;5144227;27;20469;-76
2022/01/22 13:33:15;;;;;;;12.43;5.03;;;;;;;;;;5146833;27;20445;-74
2022/01/22 13:36:13;;;;;;;9.97;4.67;;;;;;;;;;5143196;27;20886;-76
2022/01/22 13:38:58;;;;;;;9.27;4.87;;;;;;;;;;5142179;27;20444;-76
2022/01/22 13:49:46;;;;;;;8.90;4.87;;;;;;;;;;5144688;27;20444;-76
2022/01/22 13:52:16;;;;;;;10.60;5.70;;;;;;;;;;5125151;27;20474;-75
2022/01/22 13:54:44;;;;;;;13.40;5.10;;;;;;;;;;5118896;27;20438;-76
2022/01/22 13:57:13;;;;;;;8.13;5.10;;;;;;;;;;5118478;27;20493;-75
2022/01/22 13:59:43;;;;;;;7.23;4.60;;;;;;;;;;5123963;27;20433;-74
2022/01/22 14:02:15;;;;;;;10.80;5.40;;;;;;;;;;5123203;27;20482;-77
2022/01/22 14:04:46;;;;;;;7.23;4.30;;;;;;;;;;5124317;27;20453;-77
2022/01/22 14:07:23;;;;;;;6.03;4.17;;;;;;;;;;5125806;27;20459;-76
2022/01/22 14:09:59;;;;;;;8.03;4.93;;;;;;;;;;5124267;27;20430;-77
2022/01/22 14:12:31;;;;;;;9.57;5.30;;;;;;;;;;5126003;27;20434;-77
2022/01/22 14:15:06;;;;;;;8.30;4.87;;;;;;;;;;5131649;27;20437;-77
2022/01/22 14:17:46;;;;;;;9.00;4.97;;;;;;;;;;5149740;27;20452;-76
2022/01/22 14:20:14;;;;;;;10.33;5.20;;;;;;;;;;5152305;27;20447;-77
2022/01/22 14:22:59;;;;;;;8.43;4.90;;;;;;;;;;5151115;27;20483;-77
2022/01/22 14:25:26;;;;;;;9.90;5.10;;;;;;;;;;5148569;27;20788;-77
2022/01/22 14:27:55;;;;;;;7.83;4.57;;;;;;;;;;5149260;27;20457;-77
2022/01/22 14:30:35;;;;;;;7.53;4.23;;;;;;;;;;5150389;27;20928;-76
2022/01/22 14:33:04;;;;;;;7.80;5.00;;;;;;;;;;5147539;27;20441;-76
2022/01/22 14:35:32;;;;;;;11.53;5.80;;;;;;;;;;5130982;27;20454;-72
2022/01/22 14:38:14;;;;;;;7.27;4.37;;;;;;;;;;5140070;27;20485;-73
2022/01/22 14:46:14;;;;;;;10.77;4.63;;;;;;;;;;5141173;27;20510;-70
2022/01/22 14:48:49;;;;;;;7.60;3.93;;;;;;;;;;5141007;27;20465;-70
2022/01/22 14:51:17;;;;;;;8.37;4.60;;;;;;;;;;5140576;27;20481;-71
2022/01/22 14:53:45;;;;;;;6.20;5.07;;;;;;;;;;5145773;27;20846;-71
2022/01/22 14:56:20;;;;;;;7.93;4.43;;;;;;;;;;5135730;27;20465;-68
2022/01/22 14:58:47;;;;;;;9.23;5.33;;;;;;;;;;5130464;27;20434;-69
2022/01/22 15:01:17;;;;;;;7.03;4.17;;;;;;;;;;5131802;27;20458;-69
2022/01/22 15:03:45;;;;;;;10.53;4.90;;;;;;;;;;5130294;27;20487;-69
2022/01/22 15:06:13;;;;;;;7.63;4.27;;;;;;;;;;5144757;27;20458;-74
2022/01/22 15:08:41;;;;;;;4.90;4.47;;;;;;;;;;5148228;27;20441;-74
2022/01/22 15:11:09;;;;;;;7.93;5.43;;;;;;;;;;5147126;27;21012;-74
2022/01/22 15:13:37;;;;;;;6.10;4.10;;;;;;;;;;5140490;27;20456;-74
2022/01/22 15:16:05;;;;;;;8.50;4.43;;;;;;;;;;5142862;27;20472;-74
2022/01/22 15:21:59;;;;;;;7.47;4.37;;;;;;;;;;5116622;27;20515;-75
2022/01/22 15:24:27;;;;;;;6.90;4.73;;;;;;;;;;5148893;27;20434;-75
2022/01/22 15:26:55;;;;;;;6.93;4.57;;;;;;;;;;5146485;27;20541;-73
2022/01/22 15:29:28;;;;;;;5.90;3.97;;;;;;;;;;5145187;27;20441;-73
2022/01/22 15:32:06;;;;;;;9.00;5.10;;;;;;;;;;5140297;27;20489;-73
2022/01/22 15:34:57;;;;;;;6.13;5.10;;;;;;;;;;5138789;27;20442;-73
2022/01/22 15:37:27;;;;;;;6.77;4.70;;;;;;;;;;5126183;27;20462;-73
2022/01/22 15:39:55;;;;;;;7.53;4.73;;;;;;;;;;5139293;27;20444;-73
2022/01/22 15:42:23;;;;;;;5.70;4.07;;;;;;;;;;5139775;27;20565;-72
2022/01/22 15:44:51;;;;;;;8.87;4.83;;;;;;;;;;5139379;27;20469;-73
2022/01/22 15:47:22;;;;;;;5.97;4.83;;;;;;;;;;5139619;27;20489;-73
2022/01/22 15:49:56;;;;;;;6.27;4.50;;;;;;;;;;5143673;27;20450;-75
2022/01/22 15:52:24;;;;;;;8.63;4.60;;;;;;;;;;5146474;27;20484;-75
2022/01/22 15:54:54;;;;;;;7.43;5.00;;;;;;;;;;5143305;27;20800;-74
2022/01/22 15:57:22;;;;;;;9.37;5.43;;;;;;;;;;5153060;27;20457;-74
2022/01/22 15:59:51;;;;;;;10.57;4.53;;;;;;;;;;5160592;27;20451;-74
2022/01/22 16:02:20;;;;;;;9.07;5.13;;;;;;;;;;5138816;27;20548;-74
2022/01/22 16:04:51;;;;;;;5.23;4.27;;;;;;;;;;5136508;27;20444;-74
2022/01/22 16:07:21;;;;;;;10.33;4.43;;;;;;;;;;5136784;27;21032;-74
2022/01/22 16:10:12;;;;;;;7.67;4.60;;;;;;;;;;5127166;27;20962;-75
2022/01/22 16:12:40;;;;;;;7.20;4.77;;;;;;;;;;5136989;27;20438;-75
2022/01/22 16:15:09;;;;;;;6.60;4.07;;;;;;;;;;5137567;27;20476;-74
2022/01/22 16:17:37;;;;;;;6.13;4.23;;;;;;;;;;5138450;27;20525;-74
2022/01/22 16:20:06;;;;;;;7.23;3.77;;;;;;;;;;5139089;27;21028;-74
2022/01/22 16:22:34;;;;;;;5.20;3.97;;;;;;;;;;5139051;27;20481;-74
2022/01/22 16:25:03;;;;;;;7.97;4.13;;;;;;;;;;5138921;27;20442;-74
2022/01/22 16:27:34;;;;;;;6.40;4.10;;;;;;;;;;5138340;27;20461;-74
2022/01/22 16:30:02;;;;;;;7.97;3.93;;;;;;;;;;5139397;27;20462;-74